createdAt,value
2022-10-18T00:02:07.458Z,97908.00
2022-10-18T00:04:36.060Z,97915.50
2022-10-18T00:07:05.073Z,97916.00
2022-10-18T00:09:35.628Z,97905.84
2022-10-18T00:12:04.142Z,97912.63
2022-10-18T00:14:32.446Z,97905.47
2022-10-18T00:17:01.033Z,97903.44
2022-10-18T00:19:29.523Z,97901.66
2022-10-18T00:21:58.228Z,97901.66
2022-10-18T00:24:26.644Z,97902.06
2022-10-18T00:26:56.575Z,97911.47
2022-10-18T00:29:25.248Z,97905.75
2022-10-18T00:31:53.880Z,97906.94
2022-10-18T00:34:22.104Z,97900.00
2022-10-18T00:36:50.511Z,97903.56
2022-10-18T00:39:21.652Z,97898.59
2022-10-18T00:41:51.409Z,97888.78
2022-10-18T00:45:18.374Z,97890.09
2022-10-18T00:47:54.534Z,97885.09
2022-10-18T00:50:26.189Z,97893.72
2022-10-18T00:52:58.438Z,97887.34
2022-10-18T00:55:27.766Z,97891.47
2022-10-18T00:57:57.580Z,97886.44
2022-10-18T01:00:27.578Z,97887.22
2022-10-18T01:02:56.221Z,97887.53
2022-10-18T01:05:25.141Z,97888.69
2022-10-18T01:08:43.145Z,97890.66
2022-10-18T01:11:28.978Z,97884.00
2022-10-18T01:14:11.279Z,97895.44
2022-10-18T01:16:50.692Z,97892.22
2022-10-18T01:19:42.092Z,97902.56
2022-10-18T01:22:16.895Z,97898.72
2022-10-18T01:25:11.521Z,97894.97
2022-10-18T01:27:56.522Z,97891.56
2022-10-18T01:30:52.647Z,97889.44
2022-10-18T01:33:32.611Z,97897.47
2022-10-18T01:36:08.606Z,97895.84
2022-10-18T01:38:40.698Z,97889.16
2022-10-18T01:41:15.610Z,97893.25
2022-10-18T01:43:47.681Z,97890.47
2022-10-18T01:46:23.252Z,97887.63
2022-10-18T01:48:53.094Z,97885.22
2022-10-18T01:51:26.152Z,97885.22
2022-10-18T01:53:55.339Z,97888.69
2022-10-18T01:56:43.712Z,97886.88
2022-10-18T01:59:34.898Z,97888.53
2022-10-18T02:02:20.157Z,97879.88
2022-10-18T02:05:00.866Z,97889.13
2022-10-18T02:07:37.601Z,97887.00
2022-10-18T02:10:18.107Z,97882.75
2022-10-18T02:12:50.467Z,97885.09
2022-10-18T02:15:25.536Z,97881.66
2022-10-18T02:17:57.202Z,97882.53
2022-10-18T02:20:30.021Z,97880.44
2022-10-18T02:23:01.664Z,97887.41
2022-10-18T02:25:33.118Z,97888.31
2022-10-18T02:28:02.416Z,97889.63
2022-10-18T02:30:38.572Z,97892.97
2022-10-18T02:33:16.996Z,97887.09
2022-10-18T02:35:54.113Z,97885.47
2022-10-18T02:38:26.634Z,97880.72
2022-10-18T02:40:55.009Z,97877.47
2022-10-18T02:43:26.210Z,97870.28
2022-10-18T02:45:55.140Z,97877.59
2022-10-18T02:48:24.778Z,97879.44
2022-10-18T02:50:53.136Z,97879.03
2022-10-18T02:53:21.400Z,97876.88
2022-10-18T02:55:50.046Z,97871.19
2022-10-18T02:58:18.283Z,97870.91
2022-10-18T03:00:46.872Z,97878.69
2022-10-18T03:03:15.480Z,97883.56
2022-10-18T03:05:45.089Z,97884.22
2022-10-18T03:08:13.722Z,97885.22
2022-10-18T03:10:44.328Z,97886.59
2022-10-18T03:13:13.100Z,97888.41
2022-10-18T03:15:42.224Z,97891.16
2022-10-18T03:18:11.231Z,97887.13
2022-10-18T03:20:39.484Z,97889.31
2022-10-18T03:23:09.727Z,97890.28
2022-10-18T03:25:40.498Z,97897.66
2022-10-18T03:28:11.532Z,97897.16
2022-10-18T03:30:39.940Z,97892.00
2022-10-18T03:33:08.314Z,97892.19
2022-10-18T03:35:36.866Z,97898.69
2022-10-18T03:38:05.629Z,97896.94
2022-10-18T03:40:35.612Z,97902.09
2022-10-18T03:43:04.220Z,97900.69
2022-10-18T03:45:32.512Z,97893.25
2022-10-18T03:48:01.129Z,97893.66
2022-10-18T03:50:29.709Z,97899.31
2022-10-18T03:52:57.985Z,97898.09
2022-10-18T03:55:26.554Z,97894.53
2022-10-18T03:57:56.531Z,97898.72
2022-10-18T04:00:25.104Z,97902.94
2022-10-18T04:02:55.876Z,97895.59
2022-10-18T04:05:26.939Z,97906.72
2022-10-18T04:07:55.733Z,97900.44
2022-10-18T04:10:24.603Z,97919.00
2022-10-18T04:12:53.342Z,97902.69
2022-10-18T04:15:23.066Z,97908.97
2022-10-18T04:17:51.507Z,97903.19
2022-10-18T04:20:20.259Z,97910.53
2022-10-18T04:22:50.441Z,97903.56
2022-10-18T04:25:19.435Z,97898.59
2022-10-18T04:27:48.284Z,97903.75
2022-10-18T04:30:17.094Z,97908.22
2022-10-18T04:32:47.147Z,97896.94
2022-10-18T04:35:15.482Z,97910.75
2022-10-18T04:37:43.737Z,97915.72
2022-10-18T04:40:13.595Z,97911.66
2022-10-18T04:42:42.301Z,97903.94
2022-10-18T04:45:11.688Z,97897.34
2022-10-18T04:47:40.256Z,97900.38
2022-10-18T04:50:10.780Z,97901.59
2022-10-18T04:52:39.491Z,97898.03
2022-10-18T04:55:08.937Z,97892.50
2022-10-18T04:57:37.554Z,97896.19
2022-10-18T05:00:07.816Z,97890.59
2022-10-18T05:02:36.690Z,97878.56
2022-10-18T05:05:09.135Z,97885.63
2022-10-18T05:07:41.512Z,97877.53
2022-10-18T05:10:10.671Z,97870.75
2022-10-18T05:12:39.283Z,97884.03
2022-10-18T05:15:08.420Z,97878.72
2022-10-18T05:17:37.050Z,97881.16
2022-10-18T05:20:06.485Z,97879.94
2022-10-18T05:22:35.068Z,97876.06
2022-10-18T05:25:05.851Z,97878.81
2022-10-18T05:27:34.203Z,97882.22
2022-10-18T05:30:05.372Z,97875.09
2022-10-18T05:32:34.806Z,97877.22
2022-10-18T05:35:03.343Z,97879.22
2022-10-18T05:37:32.099Z,97881.75
2022-10-18T05:40:00.770Z,97882.69
2022-10-18T05:42:31.169Z,97879.09
2022-10-18T05:44:59.967Z,97879.94
2022-10-18T05:47:28.619Z,97888.84
2022-10-18T05:49:57.536Z,97881.81
2022-10-18T05:52:25.866Z,97887.03
2022-10-18T05:54:54.459Z,97886.44
2022-10-18T05:57:23.057Z,97889.56
2022-10-18T05:59:52.650Z,97893.22
2022-10-18T06:02:21.111Z,97891.72
2022-10-18T06:04:49.800Z,97891.41
2022-10-18T06:07:18.663Z,97899.81
2022-10-18T06:09:47.245Z,97904.06
2022-10-18T06:12:15.560Z,97902.06
2022-10-18T06:14:45.323Z,97905.00
2022-10-18T06:17:15.297Z,97912.00
2022-10-18T06:19:44.420Z,97918.63
2022-10-18T06:22:13.260Z,97910.78
2022-10-18T06:24:41.534Z,97909.84
2022-10-18T06:27:10.194Z,97911.19
2022-10-18T06:29:39.516Z,97914.91
2022-10-18T06:32:09.907Z,97902.13
2022-10-18T06:34:39.518Z,97905.78
2022-10-18T06:37:07.990Z,97912.16
2022-10-18T06:39:36.620Z,97921.88
2022-10-18T06:42:05.075Z,97921.78
2022-10-18T06:44:36.022Z,97920.69
2022-10-18T06:47:04.333Z,97923.81
2022-10-18T06:49:32.585Z,97915.78
2022-10-18T06:52:02.557Z,97918.00
2022-10-18T06:54:31.128Z,97915.59
2022-10-18T06:56:59.771Z,97919.00
2022-10-18T06:59:31.150Z,97923.50
2022-10-18T07:02:00.321Z,97922.00
2022-10-18T07:04:30.500Z,97930.72
2022-10-18T07:06:58.892Z,97926.81
2022-10-18T07:09:28.594Z,97927.06
2022-10-18T07:11:56.930Z,97934.88
2022-10-18T07:14:28.916Z,97936.69
2022-10-18T07:17:00.784Z,97940.97
2022-10-18T07:19:29.132Z,97936.09
2022-10-18T07:21:57.755Z,97946.84
2022-10-18T07:24:26.051Z,97936.94
2022-10-18T07:26:55.776Z,97938.06
2022-10-18T07:29:24.408Z,97924.16
2022-10-18T07:31:53.004Z,97922.66
2022-10-18T07:34:21.643Z,97931.69
2022-10-18T07:36:49.968Z,97951.41
2022-10-18T07:39:18.349Z,97936.81
2022-10-18T07:41:46.980Z,97946.69
2022-10-18T07:44:17.391Z,97950.13
2022-10-18T07:46:45.652Z,97946.38
2022-10-18T07:49:13.910Z,97947.66
2022-10-18T07:51:42.161Z,97953.16
2022-10-18T07:54:10.878Z,97945.06
2022-10-18T07:56:39.493Z,97937.00
2022-10-18T07:59:07.765Z,97932.47
2022-10-18T08:01:37.566Z,97925.66
2022-10-18T08:04:07.885Z,97921.94
2022-10-18T08:06:38.851Z,97920.97
2022-10-18T08:09:07.546Z,97925.38
2022-10-18T08:11:35.865Z,97937.00
2022-10-18T08:14:04.175Z,97937.16
2022-10-18T08:19:07.158Z,97931.16
2022-10-18T08:21:35.514Z,97931.31
2022-10-18T08:24:04.235Z,97939.06
2022-10-18T08:26:32.533Z,97937.97
2022-10-18T08:29:17.954Z,97934.09
2022-10-18T08:31:51.440Z,97935.38
2022-10-18T08:34:21.404Z,97929.72
2022-10-18T08:36:49.994Z,97937.00
2022-10-18T08:39:18.618Z,97942.19
2022-10-18T08:42:26.791Z,97943.00
2022-10-18T08:44:56.235Z,97938.31
2022-10-18T08:47:35.238Z,97933.97
2022-10-18T08:50:07.969Z,97937.09
2022-10-18T08:52:45.134Z,97926.97
2022-10-18T08:55:22.829Z,97934.47
2022-10-18T08:57:53.154Z,97929.50
2022-10-18T09:00:24.366Z,97931.38
2022-10-18T09:03:08.394Z,97943.00
2022-10-18T09:05:50.181Z,97937.50
2022-10-18T09:08:55.032Z,97942.53
2022-10-18T09:11:42.512Z,97939.47
2022-10-18T09:14:48.450Z,97944.91
2022-10-18T09:17:31.097Z,97937.59
2022-10-18T09:20:19.565Z,97942.50
2022-10-18T09:22:57.821Z,97934.63
2022-10-18T09:25:30.488Z,97942.94
2022-10-18T09:28:18.992Z,97936.75
2022-10-18T09:31:00.440Z,97935.81
2022-10-18T09:33:40.583Z,97938.50
2022-10-18T09:36:18.775Z,97934.59
2022-10-18T09:38:56.079Z,97929.31
2022-10-18T09:41:31.436Z,97942.34
2022-10-18T09:44:06.743Z,97932.91
2022-10-18T09:46:41.326Z,97941.22
2022-10-18T09:49:18.324Z,97937.63
2022-10-18T09:51:49.677Z,97932.59
2022-10-18T09:54:28.067Z,97919.59
2022-10-18T09:57:03.571Z,97929.66
2022-10-18T09:59:38.352Z,97917.81
2022-10-18T10:02:08.162Z,97920.34
2022-10-18T10:04:36.438Z,97917.53
2022-10-18T10:07:10.698Z,97931.91
2022-10-18T10:09:47.157Z,97932.28
2022-10-18T10:12:30.941Z,97925.53
2022-10-18T10:15:17.305Z,97930.94
2022-10-18T10:17:46.152Z,97925.50
2022-10-18T10:20:22.547Z,97926.47
2022-10-18T10:22:53.287Z,97921.09
2022-10-18T10:25:32.830Z,97914.22
2022-10-18T10:28:06.259Z,97919.00
2022-10-18T10:30:37.165Z,97917.44
2022-10-18T10:33:07.739Z,97915.97
2022-10-18T10:35:54.304Z,97918.66
2022-10-18T10:38:27.385Z,97909.97
2022-10-18T10:40:57.945Z,97911.88
2022-10-18T10:43:39.205Z,97907.34
2022-10-18T10:46:11.367Z,97908.13
2022-10-18T10:48:53.760Z,97908.19
2022-10-18T10:51:39.656Z,97898.31
2022-10-18T10:54:15.591Z,97895.50
2022-10-18T10:56:56.786Z,97898.34
2022-10-18T10:59:31.437Z,97897.53
2022-10-18T11:02:22.622Z,97888.16
2022-10-18T11:04:52.949Z,97901.56
2022-10-18T11:07:26.878Z,97882.38
2022-10-18T11:10:03.341Z,97883.84
2022-10-18T11:12:40.911Z,97884.38
2022-10-18T11:15:22.184Z,97875.97
2022-10-18T11:18:09.134Z,97873.19
2022-10-18T11:20:42.870Z,97872.28
2022-10-18T11:23:15.019Z,97870.22
2022-10-18T11:26:16.528Z,97861.16
2022-10-18T11:29:11.736Z,97856.97
2022-10-18T11:31:52.447Z,97843.06
2022-10-18T11:34:46.028Z,97848.16
2022-10-18T11:37:37.541Z,97840.28
2022-10-18T11:40:19.629Z,97846.34
2022-10-18T11:42:57.514Z,97840.59
2022-10-18T11:45:42.934Z,97834.31
2022-10-18T11:48:37.597Z,97839.16
2022-10-18T11:51:20.078Z,97836.81
2022-10-18T11:54:06.858Z,97837.88
2022-10-18T11:56:47.260Z,97830.28
2022-10-18T11:59:30.451Z,97822.47
2022-10-18T12:02:36.647Z,97827.63
2022-10-18T12:05:24.964Z,97827.94
2022-10-18T12:08:03.466Z,97829.09
2022-10-18T12:10:45.729Z,97825.16
2022-10-18T12:13:35.195Z,97829.25
2022-10-18T12:16:08.346Z,97824.28
2022-10-18T12:18:48.167Z,97827.06
2022-10-18T12:21:24.588Z,97822.78
2022-10-18T12:24:00.296Z,97819.53
2022-10-18T12:26:32.322Z,97812.34
2022-10-18T12:29:18.324Z,97819.94
2022-10-18T12:31:51.463Z,97820.03
2022-10-18T12:34:34.510Z,97821.16
2022-10-18T12:37:51.099Z,97804.78
2022-10-18T12:40:25.366Z,97805.94
2022-10-18T12:42:55.064Z,97816.03
2022-10-18T12:45:30.233Z,97804.88
2022-10-18T12:48:02.728Z,97801.22
2022-10-18T12:50:39.350Z,97801.25
2022-10-18T12:53:18.917Z,97806.84
2022-10-18T12:55:51.344Z,97800.25
2022-10-18T12:58:32.780Z,97798.44
2022-10-18T13:01:04.109Z,97791.59
2022-10-18T13:04:02.654Z,97794.41
2022-10-18T13:07:04.429Z,97794.03
2022-10-18T13:09:36.088Z,97792.63
2022-10-18T13:12:52.733Z,97801.47
2022-10-18T13:15:43.974Z,97788.75
2022-10-18T13:18:25.041Z,97794.88
2022-10-18T13:21:14.564Z,97793.31
2022-10-18T13:24:04.587Z,97783.84
2022-10-18T13:26:45.533Z,97796.81
2022-10-18T13:29:41.197Z,97787.72
2022-10-18T13:32:28.559Z,97784.75
2022-10-18T13:34:57.126Z,97789.97
2022-10-18T13:37:27.183Z,97793.41
2022-10-18T13:40:23.472Z,97783.22
2022-10-18T13:42:53.582Z,97787.88
2022-10-18T13:45:45.461Z,97790.44
2022-10-18T13:48:46.010Z,97789.81
2022-10-18T13:51:36.581Z,97790.94
2022-10-18T13:54:20.578Z,97787.47
2022-10-18T13:57:15.546Z,97790.59
2022-10-18T14:00:21.800Z,97796.25
2022-10-18T14:03:55.832Z,97806.19
2022-10-18T14:06:24.676Z,97798.41
2022-10-18T14:09:09.435Z,97805.00
2022-10-18T14:11:52.476Z,97807.50
2022-10-18T14:14:29.962Z,97800.03
2022-10-18T14:17:17.813Z,97807.22
2022-10-18T14:19:53.507Z,97804.59
2022-10-18T14:22:25.811Z,97814.94
2022-10-18T14:24:57.712Z,97814.72
2022-10-18T14:27:28.344Z,97816.78
2022-10-18T14:30:14.677Z,97814.63
2022-10-18T14:32:48.381Z,97809.91
2022-10-18T14:35:33.282Z,97811.00
2022-10-18T14:38:03.047Z,97812.97
2022-10-18T14:40:37.929Z,97819.66
2022-10-18T14:43:13.075Z,97813.53
2022-10-18T14:45:42.541Z,97818.25
2022-10-18T14:48:22.708Z,97826.34
2022-10-18T14:51:00.510Z,97823.59
2022-10-18T14:53:36.366Z,97821.03
2022-10-18T14:56:05.839Z,97819.88
2022-10-18T14:58:35.982Z,97822.22
2022-10-18T15:01:05.129Z,97820.94
2022-10-18T15:03:37.711Z,97818.81
2022-10-18T15:06:08.542Z,97818.28
2022-10-18T15:08:40.926Z,97822.00
2022-10-18T15:11:14.230Z,97823.00
2022-10-18T15:13:51.112Z,97816.91
2022-10-18T15:16:21.495Z,97817.75
2022-10-18T15:19:26.745Z,97815.50
2022-10-18T15:22:19.893Z,97814.50
2022-10-18T15:25:04.063Z,97811.25
2022-10-18T15:27:37.327Z,97803.16
2022-10-18T15:30:11.146Z,97817.34
2022-10-18T15:32:47.593Z,97818.63
2022-10-18T15:35:25.730Z,97815.03
2022-10-18T15:37:56.877Z,97825.03
2022-10-18T15:40:38.882Z,97829.63
2022-10-18T15:43:36.938Z,97822.72
2022-10-18T15:46:07.295Z,97813.59
2022-10-18T15:48:39.446Z,97825.25
2022-10-18T15:51:21.396Z,97823.75
2022-10-18T15:53:54.792Z,97817.28
2022-10-18T15:56:33.895Z,97825.88
2022-10-18T15:59:06.677Z,97818.22
2022-10-18T16:01:39.567Z,97831.78
2022-10-18T16:04:18.317Z,97823.19
2022-10-18T16:06:48.516Z,97824.16
2022-10-18T16:09:19.387Z,97820.47
2022-10-18T16:11:54.288Z,97835.19
2022-10-18T16:14:26.686Z,97834.06
2022-10-18T16:17:02.380Z,97841.66
2022-10-18T16:19:31.232Z,97839.13
2022-10-18T16:22:06.433Z,97844.94
2022-10-18T16:24:35.124Z,97853.22
2022-10-18T16:27:03.728Z,97848.66
2022-10-18T16:29:33.169Z,97847.50
2022-10-18T16:32:01.780Z,97853.63
2022-10-18T16:34:32.163Z,97855.03
2022-10-18T16:37:01.930Z,97850.97
2022-10-18T16:39:34.795Z,97857.38
2022-10-18T16:42:03.468Z,97860.44
2022-10-18T16:44:32.352Z,97861.50
2022-10-18T16:47:00.717Z,97857.56
2022-10-18T16:49:29.343Z,97860.97
2022-10-18T16:51:58.907Z,97869.13
2022-10-18T16:54:28.672Z,97878.19
2022-10-18T16:56:57.267Z,97883.88
2022-10-18T16:59:29.154Z,97876.31
2022-10-18T17:01:57.817Z,97888.44
2022-10-18T17:04:26.632Z,97888.88
2022-10-18T17:06:58.419Z,97889.47
2022-10-18T17:09:28.453Z,97893.84
2022-10-18T17:11:57.071Z,97903.28
2022-10-18T17:14:25.442Z,97906.50
2022-10-18T17:16:56.036Z,97904.25
2022-10-18T17:19:25.987Z,97905.13
2022-10-18T17:21:56.791Z,97899.78
2022-10-18T17:24:28.614Z,97904.47
2022-10-18T17:26:57.297Z,97903.72
2022-10-18T17:29:26.010Z,97898.19
2022-10-18T17:31:54.311Z,97911.50
2022-10-18T17:34:22.649Z,97907.50
2022-10-18T17:36:50.976Z,97914.56
2022-10-18T17:39:19.754Z,97908.94
2022-10-18T17:41:50.532Z,97911.34
2022-10-18T17:44:18.840Z,97915.47
2022-10-18T17:46:47.425Z,97915.97
2022-10-18T17:49:16.784Z,97918.91
2022-10-18T17:51:46.457Z,97916.72
2022-10-18T17:54:15.129Z,97916.13
2022-10-18T17:56:45.180Z,97920.13
2022-10-18T17:59:14.882Z,97926.59
2022-10-18T18:01:43.180Z,97930.56
2022-10-18T18:04:11.843Z,97922.78
2022-10-18T18:06:41.365Z,97920.50
2022-10-18T18:09:15.117Z,97918.00
2022-10-18T18:11:47.306Z,97921.19
2022-10-18T18:14:18.084Z,97930.38
2022-10-18T18:16:47.985Z,97931.94
2022-10-18T18:19:18.979Z,97934.94
2022-10-18T18:21:48.091Z,97936.81
2022-10-18T18:24:17.753Z,97932.84
2022-10-18T18:26:46.650Z,97932.31
2022-10-18T18:29:16.711Z,97928.00
2022-10-18T18:31:45.490Z,97924.72
2022-10-18T18:34:14.319Z,97925.84
2022-10-18T18:36:43.937Z,97919.47
2022-10-18T18:39:20.898Z,97919.69
2022-10-18T18:41:51.246Z,97920.50
2022-10-18T18:44:21.982Z,97923.69
2022-10-18T18:46:50.968Z,97927.28
2022-10-18T18:49:19.614Z,97923.88
2022-10-18T18:51:48.354Z,97931.53
2022-10-18T18:54:17.227Z,97932.09
2022-10-18T18:56:45.927Z,97928.22
2022-10-18T18:59:15.788Z,97940.91
2022-10-18T19:01:45.902Z,97938.28
2022-10-18T19:04:14.624Z,97935.06
2022-10-18T19:06:46.122Z,97932.16
2022-10-18T19:09:20.686Z,97929.69
2022-10-18T19:11:52.334Z,97927.78
2022-10-18T19:16:53.338Z,97933.59
2022-10-18T19:19:24.052Z,97936.19
2022-10-18T19:21:54.638Z,97931.00
2022-10-18T19:24:25.112Z,97936.00
2022-10-18T19:26:55.695Z,97937.63
2022-10-18T19:29:26.867Z,97931.34
2022-10-18T19:32:00.301Z,97928.75
2022-10-18T19:34:31.002Z,97920.50
2022-10-18T19:36:59.848Z,97920.16
2022-10-18T19:39:30.841Z,97926.94
2022-10-18T19:42:03.153Z,97930.75
2022-10-18T19:44:35.958Z,97925.22
2022-10-18T19:47:08.039Z,97927.94
2022-10-18T19:49:36.670Z,97934.13
2022-10-18T19:52:05.347Z,97931.41
2022-10-18T19:54:33.990Z,97925.28
2022-10-18T19:57:02.774Z,97934.03
2022-10-18T19:59:31.674Z,97939.69
2022-10-18T20:02:01.640Z,97945.38
2022-10-18T20:04:34.526Z,97942.16
2022-10-18T20:07:03.573Z,97941.03
2022-10-18T20:09:32.260Z,97940.59
2022-10-18T20:12:00.920Z,97931.81
2022-10-18T20:14:29.218Z,97941.03
2022-10-18T20:16:57.982Z,97942.66
2022-10-18T20:19:26.630Z,97940.41
2022-10-18T20:21:58.694Z,97933.59
2022-10-18T20:24:27.306Z,97937.31
2022-10-18T20:26:55.959Z,97934.88
2022-10-18T20:29:25.383Z,97937.31
2022-10-18T20:31:55.582Z,97946.19
2022-10-18T20:34:26.095Z,97949.94
2022-10-18T20:36:57.216Z,97946.53
2022-10-18T20:39:26.083Z,97951.06
2022-10-18T20:41:54.789Z,97945.25
2022-10-18T20:44:23.773Z,97947.66
2022-10-18T20:46:52.104Z,97945.56
2022-10-18T20:49:20.791Z,97947.66
2022-10-18T20:51:49.517Z,97942.97
2022-10-18T20:54:19.170Z,97944.25
2022-10-18T20:56:47.503Z,97946.38
2022-10-18T20:59:17.060Z,97950.72
2022-10-18T21:01:45.867Z,97945.72
2022-10-18T21:04:14.536Z,97950.56
2022-10-18T21:06:44.920Z,97950.25
2022-10-18T21:09:16.369Z,97954.78
2022-10-18T21:11:49.346Z,97947.84
2022-10-18T21:14:20.223Z,97945.09
2022-10-18T21:16:50.393Z,97943.63
2022-10-18T21:19:20.554Z,97946.03
2022-10-18T21:21:53.781Z,97940.59
2022-10-18T21:24:25.037Z,97949.75
2022-10-18T21:26:55.914Z,97945.53
2022-10-18T21:29:25.605Z,97943.06
2022-10-18T21:31:59.445Z,97947.78
2022-10-18T21:34:28.161Z,97945.22
2022-10-18T21:36:56.840Z,97943.75
2022-10-18T21:39:25.913Z,97939.22
2022-10-18T21:41:55.690Z,97932.38
2022-10-18T21:44:24.396Z,97934.00
2022-10-18T21:46:52.765Z,97933.72
2022-10-18T21:49:24.874Z,97924.31
2022-10-18T21:51:53.522Z,97924.97
2022-10-18T21:54:22.273Z,97922.22
2022-10-18T21:56:51.167Z,97933.41
2022-10-18T21:59:21.115Z,97926.78
2022-10-18T22:01:49.839Z,97921.09
2022-10-18T22:04:21.516Z,97920.44
2022-10-18T22:06:50.926Z,97918.13
2022-10-18T22:09:19.816Z,97918.75
2022-10-18T22:11:52.309Z,97919.56
2022-10-18T22:14:22.859Z,97926.69
2022-10-18T22:16:51.898Z,97933.97
2022-10-18T22:19:20.652Z,97929.25
2022-10-18T22:21:49.428Z,97923.09
2022-10-18T22:24:18.327Z,97915.50
2022-10-18T22:26:47.711Z,97921.63
2022-10-18T22:29:17.675Z,97922.91
2022-10-18T22:31:50.525Z,97909.47
2022-10-18T22:34:23.051Z,97912.88
2022-10-18T22:36:51.967Z,97906.13
2022-10-18T22:39:20.549Z,97912.13
2022-10-18T22:41:54.275Z,97907.94
2022-10-18T22:44:22.892Z,97915.69
2022-10-18T22:46:52.909Z,97912.47
2022-10-18T22:49:21.512Z,97910.34
2022-10-18T22:51:50.139Z,97908.56
2022-10-18T22:54:18.726Z,97910.97
2022-10-18T22:56:47.354Z,97911.78
2022-10-18T22:59:16.000Z,97904.00
2022-10-18T23:01:44.628Z,97908.88
2022-10-18T23:04:14.646Z,97905.72
2022-10-18T23:06:43.402Z,97905.22
2022-10-18T23:09:12.756Z,97900.69
2022-10-18T23:11:41.398Z,97905.09
2022-10-18T23:14:11.221Z,97897.03
2022-10-18T23:16:39.858Z,97899.44
2022-10-18T23:19:08.505Z,97898.69
2022-10-18T23:21:38.188Z,97899.81
2022-10-18T23:24:06.908Z,97898.00
2022-10-18T23:26:35.536Z,97899.78
2022-10-18T23:29:04.620Z,97892.34
2022-10-18T23:31:34.834Z,97891.63
2022-10-18T23:34:06.126Z,97888.75
2022-10-18T23:36:38.940Z,97898.97
2022-10-18T23:39:07.608Z,97889.75
2022-10-18T23:41:36.522Z,97894.75
2022-10-18T23:44:05.386Z,97894.75
2022-10-18T23:46:34.041Z,97886.38
2022-10-18T23:49:02.987Z,97886.19
2022-10-18T23:51:31.352Z,97887.81
2022-10-18T23:54:01.045Z,97886.19
2022-10-18T23:56:29.383Z,97890.22
2022-10-18T23:58:58.101Z,97889.44
